Rotterdam Express — DMRX — position and weather

sailwx.info

Track history (hours):
 
Tides and Currents Weather Stations Pressure Air Temp Water Temp Dewpoint Dewpoint Depression Visibility Wind Speed Wind Dir Waves Ship Positions

Rotterdam Express

Last reported at 2014-Sep-18 03:32 UTC. Time now 2014-Sep-19 07:52 UTC.
Position N 29°21' W 094°45'.

Length 294 m; beam 32.2 m; draft 13.6 m.

Type: Ship. MMSI: 211335760.

Date/timePositionNaut miles runAvg speedWind from/ knotsBaromVisibWave heightAir tempDewpointWater temp
2014-Sep-18 03:32N 29°21' W 094°45'1312.8
2014-Sep-18 02:33N 29°31' W 094°53'1111.1
2014-Sep-18 01:31N 29°41' W 094°59'0 0.5
2014-Sep-18 00:30N 29°41' W 094°60'0 0.0
2014-Sep-17 23:24N 29°41' W 094°60'0 0.0
2014-Sep-17 22:24N 29°41' W 094°60'0 0.0
2014-Sep-17 21:24N 29°41' W 094°60'0 0.0
2014-Sep-17 20:24N 29°41' W 094°60'0 0.0
2014-Sep-17 19:33N 29°41' W 094°60'0 0.0
2014-Sep-17 18:30N 29°41' W 094°60'0 0.0
2014-Sep-17 17:30N 29°41' W 094°60'0 0.0
2014-Sep-17 16:33N 29°41' W 094°60'0 0.0
2014-Sep-17 15:33N 29°41' W 094°60'0 0.0
2014-Sep-17 00:23N 29°41' W 094°60'0 0.0
2014-Sep-16 23:16N 29°41' W 094°60'0 0.0
2014-Sep-16 22:31N 29°41' W 094°60'0 0.0
2014-Sep-16 21:26N 29°41' W 094°60'1 0.9
2014-Sep-16 20:33N 29°41' W 094°59'10 9.7
2014-Sep-16 19:33N 29°32' W 094°54'38513.5
2014-Sep-15 15:00N 23°24' W 097°00'236 5.7 340 / 221017.210.8 1.529.524.029.0
2014-Sep-13 21:33N 19°34' W 096°05'1414.2
2014-Sep-13 20:33N 19°21' W 095°58'1211.5
2014-Sep-13 19:33N 19°11' W 096°03'5 5.2
2014-Sep-13 18:33N 19°13' W 096°08'0 0.0
2014-Sep-13 17:32N 19°13' W 096°08'0 0.0
2014-Sep-13 16:32N 19°13' W 096°08'0 0.0
2014-Sep-13 15:32N 19°13' W 096°08'0 0.0
2014-Sep-13 14:32N 19°13' W 096°08'0 0.0
2014-Sep-13 13:32N 19°13' W 096°08'0 0.0
2014-Sep-13 12:32N 19°13' W 096°08'0 0.0
2014-Sep-13 11:32N 19°13' W 096°08'0 0.0
2014-Sep-13 10:32N 19°13' W 096°08'0 0.0
2014-Sep-13 09:32N 19°13' W 096°08'0 0.0
2014-Sep-13 08:32N 19°13' W 096°08'0 0.0
2014-Sep-13 07:32N 19°13' W 096°08'0 0.0
2014-Sep-13 06:32N 19°13' W 096°08'0 0.0
2014-Sep-13 05:32N 19°13' W 096°08'0 0.0
2014-Sep-13 04:32N 19°13' W 096°08'0 0.0
2014-Sep-13 03:32N 19°13' W 096°08'0 0.0
2014-Sep-13 02:32N 19°13' W 096°08'2 2.0
2014-Sep-13 01:33N 19°12' W 096°06'7 7.4
2014-Sep-13 00:33N 19°12' W 095°58'3 3.0
2014-Sep-12 23:33N 19°14' W 095°56'5 5.1
2014-Sep-12 22:32N 19°14' W 095°50'  
2014-Sep-10 06:00N 24°06' W 080°24'13314.1 140 / 121016.0 5.4 27.522.629.0
2014-Sep-09 20:30N 26°05' W 079°19'3915.5
2014-Sep-09 18:00N 26°12' W 078°36'17814.8 090 / 101019.510.8 0.530.022.430.0
2014-Sep-09 06:00N 26°24' W 075°18'19616.3 120 / 151019.0 5.4 0.527.522.629.0
2014-Sep-08 18:00N 27°36' W 071°54'19616.3 140 / 91021.010.8 0.529.023.229.0
2014-Sep-08 06:00N 28°54' W 068°30'   050 / 71021.0 5.4 0.526.523.029.0
Track history (hours):
 
Tides and Currents Weather Stations Pressure Air Temp Water Temp Dewpoint Dewpoint Depression Visibility Wind Speed Wind Dir Waves Ship Positions

Rotterdam Express

Last reported at 2014-Sep-18 03:32 UTC. Time now 2014-Sep-19 07:52 UTC.
Position N 29°21' W 094°45'.

Length 294 m; beam 32.2 m; draft 13.6 m.

Type: Ship. MMSI: 211335760.

Date/timePositionNaut miles runAvg speedWind from/ knotsBaromVisibWave heightAir tempDewpointWater temp
2014-Sep-18 03:32N 29°21' W 094°45'1312.8
2014-Sep-18 02:33N 29°31' W 094°53'1111.1
2014-Sep-18 01:31N 29°41' W 094°59'0 0.5
2014-Sep-18 00:30N 29°41' W 094°60'0 0.0
2014-Sep-17 23:24N 29°41' W 094°60'0 0.0
2014-Sep-17 22:24N 29°41' W 094°60'0 0.0
2014-Sep-17 21:24N 29°41' W 094°60'0 0.0
2014-Sep-17 20:24N 29°41' W 094°60'0 0.0
2014-Sep-17 19:33N 29°41' W 094°60'0 0.0
2014-Sep-17 18:30N 29°41' W 094°60'0 0.0
2014-Sep-17 17:30N 29°41' W 094°60'0 0.0
2014-Sep-17 16:33N 29°41' W 094°60'0 0.0
2014-Sep-17 15:33N 29°41' W 094°60'0 0.0
2014-Sep-17 00:23N 29°41' W 094°60'0 0.0
2014-Sep-16 23:16N 29°41' W 094°60'0 0.0
2014-Sep-16 22:31N 29°41' W 094°60'0 0.0
2014-Sep-16 21:26N 29°41' W 094°60'1 0.9
2014-Sep-16 20:33N 29°41' W 094°59'10 9.7
2014-Sep-16 19:33N 29°32' W 094°54'38513.5
2014-Sep-15 15:00N 23°24' W 097°00'236 5.7 340 / 221017.210.8 1.529.524.029.0
2014-Sep-13 21:33N 19°34' W 096°05'1414.2
2014-Sep-13 20:33N 19°21' W 095°58'1211.5
2014-Sep-13 19:33N 19°11' W 096°03'5 5.2
2014-Sep-13 18:33N 19°13' W 096°08'0 0.0
2014-Sep-13 17:32N 19°13' W 096°08'0 0.0
2014-Sep-13 16:32N 19°13' W 096°08'0 0.0
2014-Sep-13 15:32N 19°13' W 096°08'0 0.0
2014-Sep-13 14:32N 19°13' W 096°08'0 0.0
2014-Sep-13 13:32N 19°13' W 096°08'0 0.0
2014-Sep-13 12:32N 19°13' W 096°08'0 0.0
2014-Sep-13 11:32N 19°13' W 096°08'0 0.0
2014-Sep-13 10:32N 19°13' W 096°08'0 0.0
2014-Sep-13 09:32N 19°13' W 096°08'0 0.0
2014-Sep-13 08:32N 19°13' W 096°08'0 0.0
2014-Sep-13 07:32N 19°13' W 096°08'0 0.0
2014-Sep-13 06:32N 19°13' W 096°08'0 0.0
2014-Sep-13 05:32N 19°13' W 096°08'0 0.0
2014-Sep-13 04:32N 19°13' W 096°08'0 0.0
2014-Sep-13 03:32N 19°13' W 096°08'0 0.0
2014-Sep-13 02:32N 19°13' W 096°08'2 2.0
2014-Sep-13 01:33N 19°12' W 096°06'7 7.4
2014-Sep-13 00:33N 19°12' W 095°58'3 3.0
2014-Sep-12 23:33N 19°14' W 095°56'5 5.1
2014-Sep-12 22:32N 19°14' W 095°50'  
2014-Sep-10 06:00N 24°06' W 080°24'13314.1 140 / 121016.0 5.4 27.522.629.0
2014-Sep-09 20:30N 26°05' W 079°19'3915.5
2014-Sep-09 18:00N 26°12' W 078°36'17814.8 090 / 101019.510.8 0.530.022.430.0
2014-Sep-09 06:00N 26°24' W 075°18'19616.3 120 / 151019.0 5.4 0.527.522.629.0
2014-Sep-08 18:00N 27°36' W 071°54'19616.3 140 / 91021.010.8 0.529.023.229.0
2014-Sep-08 06:00N 28°54' W 068°30'   050 / 71021.0 5.4 0.526.523.029.0

Dump ship's entire track history